TimeEDT,TemperatureF,Dew PointF,Humidity,Sea Level PressureIn,VisibilityMPH,Wind Direction,Wind SpeedMPH,Gust SpeedMPH,PrecipitationIn,Events,Conditions,WindDirDegrees,DateUTC
12:13 AM,39.2,34.3,83,30.11,10.0,WSW,4.6,-,N/A,,Scattered Clouds,250,2012-10-08 04:13:00
12:34 AM,37.9,34.3,87,30.11,10.0,West,4.6,-,N/A,,Clear,260,2012-10-08 04:34:00
12:54 AM,38.1,34.5,87,30.11,10.0,West,4.6,-,N/A,,Mostly Cloudy,260,2012-10-08 04:54:00
1:13 AM,36.7,33.4,88,30.12,10.0,West,3.5,-,N/A,,Scattered Clouds,260,2012-10-08 05:13:00
1:34 AM,36.5,33.3,88,30.12,10.0,WSW,4.6,-,N/A,,Scattered Clouds,240,2012-10-08 05:34:00
1:54 AM,36.1,33.3,89,30.12,10.0,WSW,4.6,-,N/A,,Scattered Clouds,240,2012-10-08 05:54:00
2:13 AM,35.6,32.7,89,30.12,10.0,SW,3.5,-,N/A,,Clear,230,2012-10-08 06:13:00
2:34 AM,34.2,32.0,92,30.12,10.0,Calm,Calm,-,N/A,,Clear,0,2012-10-08 06:34:00
2:53 AM,33.1,31.1,92,30.12,10.0,SW,4.6,-,N/A,,Clear,230,2012-10-08 06:53:00
3:13 AM,34.0,31.8,92,30.13,10.0,WSW,4.6,-,N/A,,Clear,240,2012-10-08 07:13:00
3:34 AM,32.9,30.9,92,30.12,10.0,SW,4.6,-,N/A,,Clear,230,2012-10-08 07:34:00
3:54 AM,33.4,30.7,90,30.12,10.0,SW,4.6,-,N/A,,Clear,230,2012-10-08 07:54:00
4:13 AM,32.0,29.8,92,30.12,10.0,SW,3.5,-,N/A,,Clear,220,2012-10-08 08:13:00
4:34 AM,32.0,29.3,90,30.12,10.0,SW,3.5,-,N/A,,Clear,230,2012-10-08 08:34:00
4:54 AM,32.0,29.3,90,30.13,10.0,SSW,3.5,-,N/A,,Clear,200,2012-10-08 08:54:00
5:14 AM,31.8,29.1,90,30.13,10.0,Calm,Calm,-,N/A,,Clear,0,2012-10-08 09:14:00
5:34 AM,31.1,28.8,91,30.14,10.0,Calm,Calm,-,N/A,,Clear,0,2012-10-08 09:34:00
5:53 AM,31.1,28.9,92,30.14,10.0,Calm,Calm,-,N/A,,Clear,0,2012-10-08 09:53:00
6:14 AM,30.2,28.0,92,30.14,10.0,Calm,Calm,-,N/A,,Clear,0,2012-10-08 10:14:00
6:34 AM,28.6,26.6,92,30.14,10.0,Calm,Calm,-,N/A,,Clear,0,2012-10-08 10:34:00
6:53 AM,29.8,28.0,93,30.15,10.0,Calm,Calm,-,N/A,,Clear,0,2012-10-08 10:53:00
7:14 AM,28.0,26.2,93,30.15,10.0,SSW,4.6,-,N/A,,Clear,200,2012-10-08 11:14:00
7:34 AM,28.4,26.6,93,30.15,10.0,Calm,Calm,-,N/A,,Clear,0,2012-10-08 11:34:00
7:53 AM,28.6,26.8,93,30.16,10.0,South,4.6,-,N/A,,Clear,190,2012-10-08 11:53:00
8:14 AM,30.7,28.9,93,30.16,10.0,South,4.6,-,N/A,,Clear,190,2012-10-08 12:14:00
8:34 AM,32.0,29.8,92,30.17,10.0,South,5.8,-,N/A,,Clear,190,2012-10-08 12:34:00
8:53 AM,34.2,31.3,89,30.17,10.0,South,5.8,-,N/A,,Clear,190,2012-10-08 12:53:00
9:14 AM,36.9,32.0,83,30.17,10.0,SSW,6.9,-,N/A,,Clear,200,2012-10-08 13:14:00
9:34 AM,39.7,32.0,74,30.17,10.0,SSW,6.9,-,N/A,,Clear,200,2012-10-08 13:34:00
9:53 AM,41.7,32.0,68,30.17,10.0,SW,10.4,-,N/A,,Clear,220,2012-10-08 13:53:00
10:14 AM,44.2,31.5,61,30.17,10.0,SW,12.7,17.3,N/A,,Clear,220,2012-10-08 14:14:00
10:33 AM,45.9,31.3,57,30.17,10.0,SW,12.7,-,N/A,,Clear,220,2012-10-08 14:33:00
10:54 AM,47.7,30.9,52,30.16,10.0,SSW,9.2,-,N/A,,Clear,210,2012-10-08 14:54:00
11:14 AM,49.1,30.7,49,30.16,10.0,SSW,9.2,-,N/A,,Clear,210,2012-10-08 15:14:00
11:33 AM,50.7,30.9,47,30.15,10.0,SSW,11.5,-,N/A,,Clear,210,2012-10-08 15:33:00
11:54 AM,50.9,29.3,43,30.15,10.0,SSW,12.7,-,N/A,,Clear,210,2012-10-08 15:54:00
12:14 PM,51.4,27.7,40,30.15,10.0,WSW,9.2,17.3,N/A,,Clear,250,2012-10-08 16:14:00
12:33 PM,52.3,26.4,37,30.15,10.0,SW,11.5,17.3,N/A,,Clear,220,2012-10-08 16:33:00
12:54 PM,52.5,27.1,38,30.15,10.0,WSW,13.8,20.7,N/A,,Clear,250,2012-10-08 16:54:00
1:14 PM,53.2,27.0,36,30.14,10.0,SW,8.1,19.6,N/A,,Mostly Cloudy,220,2012-10-08 17:14:00
1:54 PM,53.8,27.9,37,30.13,10.0,SW,11.5,21.9,N/A,,Scattered Clouds,220,2012-10-08 17:54:00
2:14 PM,54.3,27.3,35,30.12,10.0,SW,12.7,18.4,N/A,,Clear,220,2012-10-08 18:14:00
2:34 PM,54.3,27.5,36,30.12,10.0,SW,11.5,16.1,N/A,,Scattered Clouds,220,2012-10-08 18:34:00
2:54 PM,54.5,27.0,35,30.11,10.0,SW,9.2,20.7,N/A,,Scattered Clouds,230,2012-10-08 18:54:00
3:14 PM,54.5,27.5,35,30.10,10.0,SSW,12.7,16.1,N/A,,Scattered Clouds,200,2012-10-08 19:14:00
3:34 PM,53.4,27.9,37,30.10,10.0,SSW,11.5,-,N/A,,Scattered Clouds,200,2012-10-08 19:34:00
3:54 PM,54.9,27.5,35,30.10,10.0,SSW,9.2,20.7,N/A,,Scattered Clouds,210,2012-10-08 19:54:00
4:14 PM,54.7,27.9,36,30.09,10.0,South,13.8,18.4,N/A,,Clear,190,2012-10-08 20:14:00
4:34 PM,54.5,27.5,35,30.09,10.0,SSW,11.5,17.3,N/A,,Clear,200,2012-10-08 20:34:00
4:54 PM,54.5,26.8,34,30.09,10.0,SW,12.7,18.4,N/A,,Scattered Clouds,230,2012-10-08 20:54:00
5:14 PM,53.8,26.6,35,30.09,10.0,SSW,10.4,19.6,N/A,,Clear,200,2012-10-08 21:14:00
5:34 PM,53.4,27.1,36,30.08,10.0,SSW,9.2,17.3,N/A,,Clear,200,2012-10-08 21:34:00
5:54 PM,52.7,26.6,36,30.08,10.0,South,10.4,18.4,N/A,,Clear,190,2012-10-08 21:54:00
6:14 PM,51.8,26.6,38,30.08,10.0,South,9.2,-,N/A,,Clear,190,2012-10-08 22:14:00
6:34 PM,50.0,28.2,43,30.08,10.0,South,6.9,-,N/A,,Clear,190,2012-10-08 22:34:00
6:54 PM,48.4,28.2,46,30.08,10.0,SSW,8.1,-,N/A,,Clear,200,2012-10-08 22:54:00
7:15 PM,44.2,29.3,56,30.09,10.0,South,6.9,-,N/A,,Clear,180,2012-10-08 23:15:00
7:34 PM,42.3,28.6,58,30.09,10.0,South,5.8,-,N/A,,Clear,170,2012-10-08 23:34:00
7:54 PM,42.8,28.6,57,30.09,10.0,South,5.8,-,N/A,,Clear,170,2012-10-08 23:54:00
8:15 PM,42.1,29.3,61,30.09,10.0,South,8.1,-,N/A,,Clear,170,2012-10-09 00:15:00
8:34 PM,41.5,29.3,62,30.09,10.0,SSE,5.8,-,N/A,,Clear,160,2012-10-09 00:34:00
9:34 PM,42.3,31.5,66,30.10,10.0,South,9.2,-,N/A,,Clear,170,2012-10-09 01:34:00
9:54 PM,41.9,31.6,67,30.10,10.0,South,10.4,-,N/A,,Clear,170,2012-10-09 01:54:00
10:14 PM,42.3,31.3,65,30.10,10.0,South,11.5,-,N/A,,Clear,180,2012-10-09 02:14:00
10:34 PM,41.7,31.1,66,30.10,10.0,South,10.4,-,N/A,,Clear,180,2012-10-09 02:34:00
10:54 PM,42.1,30.7,64,30.10,10.0,South,10.4,-,N/A,,Clear,190,2012-10-09 02:54:00
11:14 PM,41.9,30.6,64,30.10,10.0,South,10.4,-,N/A,,Clear,190,2012-10-09 03:14:00
11:54 PM,42.1,30.2,63,30.10,10.0,South,12.7,-,N/A,,Clear,190,2012-10-09 03:54:00